createdAt,value
2018-01-30T00:00:26.819Z,8.80
2018-01-30T00:02:54.816Z,8.80
2018-01-30T00:05:23.629Z,8.90
2018-01-30T00:07:52.388Z,8.80
2018-01-30T00:10:20.412Z,8.80
2018-01-30T00:12:48.401Z,8.80
2018-01-30T00:15:16.388Z,8.80
2018-01-30T00:17:44.391Z,8.80
2018-01-30T00:20:12.406Z,8.80
2018-01-30T00:22:40.397Z,8.80
2018-01-30T00:25:08.407Z,8.80
2018-01-30T00:27:37.234Z,8.80
2018-01-30T00:30:05.212Z,8.80
2018-01-30T00:32:33.228Z,8.80
2018-01-30T00:35:01.228Z,8.80
2018-01-30T00:37:30.063Z,8.70
2018-01-30T00:39:58.307Z,8.70
2018-01-30T00:42:26.313Z,8.60
2018-01-30T00:44:55.068Z,8.60
2018-01-30T00:47:23.072Z,8.60
2018-01-30T00:49:51.069Z,8.60
2018-01-30T00:52:19.072Z,8.40
2018-01-30T00:54:47.831Z,8.20
2018-01-30T00:57:15.851Z,8.20
2018-01-30T00:59:44.619Z,8.10
2018-01-30T01:02:12.648Z,8.10
2018-01-30T01:04:41.412Z,8.00
2018-01-30T01:07:09.400Z,8.00
2018-01-30T01:09:37.397Z,8.10
2018-01-30T01:12:05.410Z,8.00
2018-01-30T01:14:33.388Z,7.80
2018-01-30T01:17:01.389Z,7.80
2018-01-30T01:19:29.396Z,7.80
2018-01-30T01:21:58.060Z,7.80
2018-01-30T01:24:26.073Z,7.80
2018-01-30T01:26:54.074Z,7.80
2018-01-30T01:29:22.060Z,7.80
2018-01-30T01:31:50.069Z,7.80
2018-01-30T01:34:18.842Z,7.90
2018-01-30T01:36:46.880Z,7.80
2018-01-30T01:39:14.925Z,7.80
2018-01-30T01:41:42.981Z,7.80
2018-01-30T01:44:11.008Z,7.80
2018-01-30T01:46:39.828Z,7.80
2018-01-30T01:49:07.872Z,7.70
2018-01-30T01:51:35.921Z,7.70
2018-01-30T01:54:03.968Z,7.60
2018-01-30T01:56:32.063Z,7.70
2018-01-30T01:59:00.097Z,7.70
2018-01-30T02:01:28.154Z,7.70
2018-01-30T02:03:56.200Z,7.60
2018-01-30T02:06:25.012Z,7.70
2018-01-30T02:08:53.074Z,7.60
2018-01-30T02:11:21.120Z,7.70
2018-01-30T02:13:49.161Z,7.70
2018-01-30T02:16:18.032Z,7.70
2018-01-30T02:18:46.076Z,7.70
2018-01-30T02:21:14.102Z,7.70
2018-01-30T02:23:42.148Z,7.80
2018-01-30T02:26:10.188Z,7.70
2018-01-30T02:28:39.012Z,7.70
2018-01-30T02:31:07.086Z,7.70
2018-01-30T02:33:35.132Z,7.70
2018-01-30T02:36:03.177Z,7.70
2018-01-30T02:38:32.208Z,7.70
2018-01-30T02:41:00.264Z,7.70
2018-01-30T02:43:28.307Z,7.70
2018-01-30T02:45:57.124Z,7.60
2018-01-30T02:48:25.937Z,7.70
2018-01-30T02:50:53.980Z,7.60
2018-01-30T02:53:22.013Z,7.70
2018-01-30T02:55:50.063Z,7.70
2018-01-30T02:58:19.154Z,7.70
2018-01-30T03:00:47.177Z,7.70
2018-01-30T03:03:15.224Z,7.80
2018-01-30T03:05:43.280Z,7.80
2018-01-30T03:08:11.313Z,7.70
2018-01-30T03:10:40.139Z,7.70
2018-01-30T03:13:08.199Z,7.60
2018-01-30T03:15:37.000Z,7.60
2018-01-30T03:18:05.830Z,7.60
2018-01-30T03:20:33.868Z,7.60
2018-01-30T03:23:01.892Z,7.60
2018-01-30T03:25:29.937Z,7.40
2018-01-30T03:27:58.735Z,7.30
2018-01-30T03:30:28.285Z,7.20
2018-01-30T03:32:56.377Z,7.20
2018-01-30T03:35:24.408Z,7.20
2018-01-30T03:37:52.464Z,7.10
2018-01-30T03:40:20.515Z,7.00
2018-01-30T03:42:49.304Z,6.90
2018-01-30T03:45:18.116Z,6.70
2018-01-30T03:47:46.168Z,6.70
2018-01-30T03:50:14.192Z,6.60
2018-01-30T03:52:42.249Z,6.50
2018-01-30T03:55:11.044Z,6.40
2018-01-30T03:57:39.087Z,6.30
2018-01-30T04:00:07.144Z,6.10
2018-01-30T04:02:35.180Z,6.10
2018-01-30T04:05:03.249Z,6.10
2018-01-30T04:07:31.289Z,6.10
2018-01-30T04:10:00.096Z,5.90
2018-01-30T04:12:28.152Z,5.90
2018-01-30T04:14:56.188Z,5.80
2018-01-30T04:17:24.248Z,5.80
2018-01-30T04:19:53.057Z,5.80
2018-01-30T04:22:21.088Z,5.80
2018-01-30T04:24:49.141Z,5.80
2018-01-30T04:27:17.164Z,5.70
2018-01-30T04:29:45.216Z,5.70
2018-01-30T04:32:13.327Z,5.60
2018-01-30T04:34:41.359Z,5.60
2018-01-30T04:37:09.417Z,5.50
2018-01-30T04:39:38.228Z,5.30
2018-01-30T04:42:07.015Z,5.20
2018-01-30T04:44:35.843Z,5.20
2018-01-30T04:47:03.888Z,5.20
2018-01-30T04:49:31.916Z,5.20
2018-01-30T04:51:59.961Z,5.30
2018-01-30T04:54:28.016Z,5.30
2018-01-30T04:56:56.056Z,5.30
2018-01-30T04:59:24.405Z,5.20
2018-01-30T05:01:52.461Z,5.20
2018-01-30T05:04:20.484Z,5.20
2018-01-30T05:06:48.533Z,5.20
2018-01-30T05:09:16.620Z,5.10
2018-01-30T05:11:44.656Z,5.00
2018-01-30T05:14:13.468Z,5.10
2018-01-30T05:16:41.516Z,5.00
2018-01-30T05:19:09.559Z,5.10
2018-01-30T05:21:37.610Z,5.00
2018-01-30T05:24:06.412Z,5.00
2018-01-30T05:26:34.449Z,4.90
2018-01-30T05:29:02.511Z,5.00
2018-01-30T05:31:30.552Z,4.90
2018-01-30T05:33:59.344Z,4.90
2018-01-30T05:36:27.388Z,4.90
2018-01-30T05:38:56.376Z,4.90
2018-01-30T05:41:24.401Z,4.90
2018-01-30T05:43:52.444Z,4.90
2018-01-30T05:46:20.468Z,4.90
2018-01-30T05:48:48.511Z,4.90
2018-01-30T05:51:16.540Z,4.90
2018-01-30T05:53:44.578Z,4.90
2018-01-30T05:56:12.624Z,4.80
2018-01-30T05:58:41.419Z,4.70
2018-01-30T06:01:10.248Z,4.70
2018-01-30T06:03:38.292Z,4.60
2018-01-30T06:06:06.321Z,4.70
2018-01-30T06:08:34.390Z,4.70
2018-01-30T06:11:03.201Z,4.70
2018-01-30T06:13:31.224Z,4.70
2018-01-30T06:15:59.281Z,4.70
2018-01-30T06:18:27.324Z,4.70
2018-01-30T06:20:56.128Z,4.60
2018-01-30T06:23:24.936Z,4.60
2018-01-30T06:25:53.752Z,4.60
2018-01-30T06:28:21.788Z,4.60
2018-01-30T06:30:49.829Z,4.60
2018-01-30T06:33:17.890Z,4.60
2018-01-30T06:35:46.677Z,4.60
2018-01-30T06:38:15.488Z,4.50
2018-01-30T06:40:44.284Z,4.50
2018-01-30T06:43:13.821Z,4.40
2018-01-30T06:45:42.624Z,4.40
2018-01-30T06:48:11.412Z,4.30
2018-01-30T06:50:40.245Z,4.40
2018-01-30T06:53:08.296Z,4.30
2018-01-30T06:55:36.348Z,4.40
2018-01-30T06:58:04.405Z,4.30
2018-01-30T07:00:32.451Z,4.30
2018-01-30T07:03:01.259Z,4.30
2018-01-30T07:05:30.086Z,4.30
2018-01-30T07:07:58.121Z,4.20
2018-01-30T07:10:27.662Z,4.10
2018-01-30T07:12:56.472Z,4.10
2018-01-30T07:15:24.527Z,4.10
2018-01-30T07:17:52.556Z,4.10
2018-01-30T07:20:20.616Z,4.10
2018-01-30T07:22:49.431Z,4.10
2018-01-30T07:25:17.479Z,4.10
2018-01-30T07:27:45.526Z,4.10
2018-01-30T07:30:13.563Z,4.10
2018-01-30T07:32:42.360Z,4.20
2018-01-30T07:35:11.175Z,4.30
2018-01-30T07:37:39.232Z,4.20
2018-01-30T07:40:08.930Z,4.20
2018-01-30T07:42:36.992Z,4.20
2018-01-30T07:45:05.030Z,4.30
2018-01-30T07:47:33.256Z,4.30
2018-01-30T07:50:01.308Z,4.40
2018-01-30T07:52:30.105Z,4.50
2018-01-30T07:54:58.929Z,4.50
2018-01-30T07:57:26.971Z,4.50
2018-01-30T07:59:55.006Z,4.50
2018-01-30T08:02:23.061Z,4.60
2018-01-30T08:04:51.881Z,4.60
2018-01-30T08:07:20.673Z,4.60
2018-01-30T08:09:49.487Z,4.60
2018-01-30T08:12:17.535Z,4.60
2018-01-30T08:14:45.556Z,4.60
2018-01-30T08:17:13.620Z,4.70
2018-01-30T08:19:42.440Z,4.60
2018-01-30T08:22:10.480Z,4.60
2018-01-30T08:24:38.528Z,4.70
2018-01-30T08:27:06.589Z,4.70
2018-01-30T08:29:34.629Z,4.80
2018-01-30T08:32:02.677Z,4.80
2018-01-30T08:34:30.736Z,4.90
2018-01-30T08:36:58.768Z,4.70
2018-01-30T08:39:26.828Z,4.90
2018-01-30T08:41:54.884Z,4.90
2018-01-30T08:44:23.687Z,5.00
2018-01-30T08:46:52.496Z,4.90
2018-01-30T08:49:20.558Z,4.90
2018-01-30T08:51:48.569Z,4.90
2018-01-30T08:54:16.628Z,5.10
2018-01-30T08:56:45.444Z,5.20
2018-01-30T08:59:14.240Z,5.20
2018-01-30T09:01:43.052Z,5.30
2018-01-30T09:04:11.101Z,5.20
2018-01-30T09:06:39.156Z,5.30
2018-01-30T09:09:08.013Z,5.40
2018-01-30T09:11:36.816Z,5.60
2018-01-30T09:14:04.866Z,5.50
2018-01-30T09:16:32.928Z,5.60
2018-01-30T09:19:00.956Z,5.70
2018-01-30T09:21:29.777Z,5.80
2018-01-30T09:23:57.826Z,5.80
2018-01-30T09:26:25.862Z,5.70
2018-01-30T09:28:53.932Z,5.70
2018-01-30T09:31:21.980Z,5.70
2018-01-30T09:33:50.028Z,5.80
2018-01-30T09:36:18.081Z,5.90
2018-01-30T09:38:46.134Z,5.80
2018-01-30T09:41:14.531Z,5.90
2018-01-30T09:43:44.052Z,6.20
2018-01-30T09:46:12.860Z,6.30
2018-01-30T09:48:41.677Z,6.30
2018-01-30T09:51:09.700Z,6.30
2018-01-30T09:53:37.751Z,6.40
2018-01-30T09:56:05.812Z,6.40
2018-01-30T09:58:34.618Z,6.40
2018-01-30T10:01:03.428Z,6.50
2018-01-30T10:03:31.470Z,6.40
2018-01-30T10:05:59.524Z,6.50
2018-01-30T10:08:27.569Z,6.60
2018-01-30T10:10:56.388Z,6.80
2018-01-30T10:13:24.403Z,6.70
2018-01-30T10:15:52.463Z,6.70
2018-01-30T10:18:20.500Z,6.70
2018-01-30T10:20:48.537Z,6.90
2018-01-30T10:23:16.585Z,7.00
2018-01-30T10:25:45.406Z,7.30
2018-01-30T10:28:13.452Z,7.20
2018-01-30T10:30:41.489Z,7.50
2018-01-30T10:33:09.557Z,7.60
2018-01-30T10:35:37.616Z,7.70
2018-01-30T10:38:06.427Z,7.50
2018-01-30T10:40:35.257Z,7.60
2018-01-30T10:43:03.361Z,7.50
2018-01-30T10:45:31.384Z,7.50
2018-01-30T10:48:00.197Z,7.40
2018-01-30T10:50:29.015Z,7.50
2018-01-30T10:52:57.037Z,7.40
2018-01-30T10:55:25.085Z,7.40
2018-01-30T10:57:53.152Z,7.50
2018-01-30T11:00:21.961Z,7.60
2018-01-30T11:02:50.773Z,7.60
2018-01-30T11:05:18.833Z,7.60
2018-01-30T11:07:47.625Z,7.90
2018-01-30T11:10:16.443Z,7.80
2018-01-30T11:12:45.253Z,8.10
2018-01-30T11:15:13.280Z,8.00
2018-01-30T11:17:41.328Z,7.90
2018-01-30T11:20:09.376Z,7.90
2018-01-30T11:22:38.176Z,8.00
2018-01-30T11:25:06.237Z,7.90
2018-01-30T11:27:34.282Z,8.10
2018-01-30T11:30:02.317Z,8.30
2018-01-30T11:32:30.355Z,8.20
2018-01-30T11:34:58.417Z,8.30
2018-01-30T11:37:27.208Z,8.30
2018-01-30T11:39:56.028Z,8.50
2018-01-30T11:42:24.076Z,8.50
2018-01-30T11:44:52.108Z,8.60
2018-01-30T11:47:20.152Z,8.70
2018-01-30T11:49:48.975Z,8.80
2018-01-30T11:52:17.768Z,9.00
2018-01-30T11:54:46.581Z,9.00
2018-01-30T11:57:14.623Z,8.90
2018-01-30T11:59:42.659Z,8.70
2018-01-30T12:02:10.700Z,9.00
2018-01-30T12:04:38.754Z,9.20
2018-01-30T12:07:06.804Z,9.60
2018-01-30T12:09:35.599Z,9.80
2018-01-30T12:12:03.633Z,9.80
2018-01-30T12:14:31.701Z,10.00
2018-01-30T12:16:59.761Z,10.00
2018-01-30T12:19:27.808Z,9.90
2018-01-30T12:21:55.851Z,9.80
2018-01-30T12:24:23.908Z,10.00
2018-01-30T12:26:51.943Z,10.00
2018-01-30T12:29:20.004Z,10.20
2018-01-30T12:31:48.047Z,10.10
2018-01-30T12:34:16.860Z,10.00
2018-01-30T12:36:44.912Z,10.00
2018-01-30T12:39:13.764Z,10.00
2018-01-30T12:41:41.849Z,9.90
2018-01-30T12:44:09.888Z,10.30
2018-01-30T12:46:38.726Z,10.40
2018-01-30T12:49:06.788Z,10.40
2018-01-30T12:51:34.931Z,10.60
2018-01-30T12:54:03.674Z,10.40
2018-01-30T12:56:32.510Z,10.20
2018-01-30T12:59:00.556Z,10.20
2018-01-30T13:01:29.359Z,10.60
2018-01-30T13:03:58.168Z,10.50
2018-01-30T13:06:26.232Z,10.40
2018-01-30T13:08:54.260Z,10.30
2018-01-30T13:11:22.309Z,10.20
2018-01-30T13:13:51.120Z,10.10
2018-01-30T13:16:19.166Z,10.10
2018-01-30T13:18:47.212Z,10.00
2018-01-30T13:21:15.259Z,9.80
2018-01-30T13:23:44.073Z,9.60
2018-01-30T13:26:12.120Z,9.60
2018-01-30T13:28:40.171Z,9.70
2018-01-30T13:31:08.195Z,9.80
2018-01-30T13:33:36.247Z,9.90
2018-01-30T13:36:04.306Z,9.80
2018-01-30T13:38:32.337Z,9.80
2018-01-30T13:41:00.398Z,9.90
2018-01-30T13:43:28.444Z,10.00
2018-01-30T13:45:56.488Z,10.00
2018-01-30T13:48:24.540Z,9.80
2018-01-30T13:50:52.585Z,9.70
2018-01-30T13:53:21.376Z,9.90
2018-01-30T13:55:50.197Z,9.70
2018-01-30T13:58:18.239Z,9.60
2018-01-30T14:00:46.267Z,9.50
2018-01-30T14:03:14.316Z,9.80
2018-01-30T14:05:42.371Z,9.80
2018-01-30T14:08:10.404Z,9.80
2018-01-30T14:10:39.273Z,9.70
2018-01-30T14:13:07.368Z,9.70
2018-01-30T14:15:36.197Z,9.70
2018-01-30T14:18:05.072Z,9.70
2018-01-30T14:20:33.138Z,10.00
2018-01-30T14:23:01.917Z,10.20
2018-01-30T14:25:29.972Z,10.30
2018-01-30T14:27:58.784Z,10.00
2018-01-30T14:30:26.804Z,9.90
2018-01-30T14:32:54.873Z,10.00
2018-01-30T14:35:22.921Z,9.80
2018-01-30T14:37:51.720Z,9.50
2018-01-30T14:40:20.549Z,9.20
2018-01-30T14:42:48.608Z,9.20
2018-01-30T14:45:17.400Z,8.90
2018-01-30T14:47:46.211Z,8.80
2018-01-30T14:50:15.047Z,8.80
2018-01-30T14:52:43.068Z,8.70
2018-01-30T14:55:11.132Z,8.60
2018-01-30T14:57:39.189Z,8.60
2018-01-30T15:00:07.229Z,8.70
2018-01-30T15:02:35.286Z,8.80
2018-01-30T15:05:03.316Z,8.80
2018-01-30T15:07:32.172Z,8.90
2018-01-30T15:10:01.185Z,8.90
2018-01-30T15:12:29.216Z,8.80
2018-01-30T15:14:57.256Z,8.80
2018-01-30T15:17:25.310Z,8.90
2018-01-30T15:19:53.380Z,8.90
2018-01-30T15:22:21.420Z,8.90
2018-01-30T15:24:49.467Z,8.80
2018-01-30T15:27:17.505Z,8.80
2018-01-30T15:29:46.324Z,8.60
2018-01-30T15:32:14.372Z,8.50
2018-01-30T15:34:42.404Z,8.50
2018-01-30T15:37:10.456Z,8.70
2018-01-30T15:39:38.515Z,8.80
2018-01-30T15:42:06.571Z,8.80
2018-01-30T15:44:34.642Z,8.50
2018-01-30T15:47:02.693Z,8.30
2018-01-30T15:49:32.297Z,8.20
2018-01-30T15:52:00.335Z,8.20
2018-01-30T15:54:28.398Z,8.20
2018-01-30T15:56:57.197Z,7.80
2018-01-30T15:59:25.247Z,7.80
2018-01-30T16:01:53.264Z,7.80
2018-01-30T16:04:21.322Z,7.60
2018-01-30T16:06:49.368Z,7.60
2018-01-30T16:09:17.399Z,7.50
2018-01-30T16:11:46.221Z,7.40
2018-01-30T16:14:14.267Z,7.40
2018-01-30T16:16:42.294Z,7.40
2018-01-30T16:19:10.407Z,7.30
2018-01-30T16:21:38.470Z,7.30
2018-01-30T16:24:06.507Z,7.20
2018-01-30T16:26:34.552Z,7.20
2018-01-30T16:29:02.601Z,7.10
2018-01-30T16:31:30.633Z,6.90
2018-01-30T16:33:58.699Z,6.80
2018-01-30T16:36:26.732Z,6.80
2018-01-30T16:38:55.531Z,6.60
2018-01-30T16:41:24.349Z,6.50
2018-01-30T16:43:53.185Z,6.40
2018-01-30T16:46:21.208Z,6.30
2018-01-30T16:48:49.251Z,6.40
2018-01-30T16:51:17.300Z,6.20
2018-01-30T16:53:46.109Z,6.10
2018-01-30T16:56:14.916Z,5.90
2018-01-30T16:58:42.972Z,5.90
2018-01-30T17:01:11.774Z,5.50
2018-01-30T17:03:40.717Z,5.40
2018-01-30T17:06:08.760Z,5.30
2018-01-30T17:08:36.812Z,5.40
2018-01-30T17:11:04.873Z,5.20
2018-01-30T17:13:32.892Z,5.20
2018-01-30T17:16:00.944Z,5.10
2018-01-30T17:18:28.992Z,5.10
2018-01-30T17:20:57.021Z,5.00
2018-01-30T17:23:25.083Z,4.90
2018-01-30T17:25:53.120Z,4.70
2018-01-30T17:28:21.221Z,4.70
2018-01-30T17:30:50.045Z,4.40
2018-01-30T17:33:18.084Z,4.40
2018-01-30T17:35:46.124Z,4.30
2018-01-30T17:38:14.185Z,4.20
2018-01-30T17:40:42.976Z,4.10
2018-01-30T17:43:11.948Z,4.00
2018-01-30T17:45:40.000Z,4.00
2018-01-30T17:48:08.056Z,4.10
2018-01-30T17:50:36.894Z,4.10
2018-01-30T17:53:04.933Z,4.00
2018-01-30T17:55:33.803Z,4.20
2018-01-30T17:58:01.832Z,4.10
2018-01-30T18:00:30.623Z,4.10
2018-01-30T18:02:59.440Z,3.90
2018-01-30T18:05:27.498Z,3.80
2018-01-30T18:07:55.519Z,3.80
2018-01-30T18:10:23.590Z,3.70
2018-01-30T18:12:52.394Z,3.40
2018-01-30T18:15:20.436Z,3.30
2018-01-30T18:17:48.488Z,3.40
2018-01-30T18:20:16.541Z,3.30
2018-01-30T18:22:45.358Z,3.40
2018-01-30T18:25:13.401Z,3.30
2018-01-30T18:27:41.456Z,3.40
2018-01-30T18:30:09.534Z,3.30
2018-01-30T18:32:37.596Z,3.30
2018-01-30T18:35:05.700Z,3.30
2018-01-30T18:37:33.728Z,3.20
2018-01-30T18:40:02.546Z,3.00
2018-01-30T18:42:31.348Z,3.00
2018-01-30T18:45:00.332Z,2.90
2018-01-30T18:47:28.388Z,2.90
2018-01-30T18:49:56.440Z,2.90
2018-01-30T18:52:24.491Z,2.80
2018-01-30T18:54:53.456Z,2.80
2018-01-30T18:57:21.500Z,2.70
2018-01-30T18:59:49.539Z,2.70
2018-01-30T19:02:17.584Z,2.80
2018-01-30T19:04:45.631Z,2.70
2018-01-30T19:07:14.809Z,2.70
2018-01-30T19:09:42.857Z,2.60
2018-01-30T19:12:10.904Z,2.60
2018-01-30T19:14:38.935Z,2.50
2018-01-30T19:17:07.008Z,2.40
2018-01-30T19:19:35.073Z,2.50
2018-01-30T19:22:03.868Z,2.50
2018-01-30T19:24:32.705Z,2.40
2018-01-30T19:27:01.008Z,2.30
2018-01-30T19:29:29.056Z,2.30
2018-01-30T19:31:57.636Z,2.20
2018-01-30T19:34:26.444Z,2.10
2018-01-30T19:36:55.349Z,2.00
2018-01-30T19:39:24.169Z,2.10
2018-01-30T19:41:52.219Z,2.00
2018-01-30T19:44:21.011Z,2.00
2018-01-30T19:46:50.374Z,2.00
2018-01-30T19:49:18.437Z,1.90
2018-01-30T19:51:47.232Z,1.70
2018-01-30T19:54:16.050Z,1.50
2018-01-30T19:56:44.101Z,1.50
2018-01-30T19:59:12.190Z,1.40
2018-01-30T20:01:40.347Z,1.40
2018-01-30T20:04:08.449Z,1.40
2018-01-30T20:06:36.557Z,1.40
2018-01-30T20:09:05.428Z,1.50
2018-01-30T20:11:33.514Z,1.50
2018-01-30T20:14:01.666Z,1.60
2018-01-30T20:16:29.763Z,1.60
2018-01-30T20:18:58.521Z,1.70
2018-01-30T20:21:27.382Z,1.60
2018-01-30T20:23:55.535Z,1.50
2018-01-30T20:26:29.292Z,1.50
2018-01-30T20:28:57.419Z,1.60
2018-01-30T20:31:26.232Z,1.20
2018-01-30T20:33:54.264Z,1.20
2018-01-30T20:36:22.461Z,1.20
2018-01-30T20:38:52.074Z,1.10
2018-01-30T20:41:20.088Z,1.10
2018-01-30T20:43:48.920Z,1.00
2018-01-30T20:46:17.013Z,1.00
2018-01-30T20:48:45.048Z,1.00
2018-01-30T20:51:13.880Z,1.10
2018-01-30T20:53:41.929Z,1.00
2018-01-30T20:56:10.023Z,1.10
2018-01-30T20:58:38.864Z,1.20
2018-01-30T21:01:06.967Z,1.10
2018-01-30T21:03:34.988Z,1.10
2018-01-30T21:06:03.798Z,1.00
2018-01-30T21:08:32.600Z,0.90
2018-01-30T21:11:01.400Z,0.90
2018-01-30T21:13:30.212Z,0.80
2018-01-30T21:15:58.263Z,0.80
2018-01-30T21:18:26.293Z,0.80
2018-01-30T21:20:54.327Z,0.80
2018-01-30T21:23:22.380Z,0.80
2018-01-30T21:25:50.404Z,0.70
2018-01-30T21:28:18.460Z,0.60
2018-01-30T21:30:46.504Z,0.50
2018-01-30T21:33:14.531Z,0.40
2018-01-30T21:35:42.580Z,0.40
2018-01-30T21:38:10.639Z,0.40
2018-01-30T21:40:39.436Z,0.40
2018-01-30T21:43:08.256Z,0.40
2018-01-30T21:45:36.313Z,0.30
2018-01-30T21:48:04.356Z,0.40
2018-01-30T21:50:32.408Z,0.40
2018-01-30T21:53:00.464Z,0.40
2018-01-30T21:55:28.499Z,0.50
2018-01-30T21:57:56.548Z,0.60
2018-01-30T22:00:25.340Z,0.60
2018-01-30T22:02:54.147Z,0.60
2018-01-30T22:05:22.961Z,0.60
2018-01-30T22:07:50.993Z,0.50
2018-01-30T22:10:19.053Z,0.60
2018-01-30T22:12:47.118Z,0.60
2018-01-30T22:15:15.909Z,0.50
2018-01-30T22:17:44.736Z,0.50
2018-01-30T22:20:12.780Z,0.40
2018-01-30T22:22:41.568Z,0.40
2018-01-30T22:25:11.220Z,0.30
2018-01-30T22:27:40.051Z,0.30
2018-01-30T22:30:08.087Z,0.30
2018-01-30T22:32:36.143Z,0.40
2018-01-30T22:35:04.181Z,0.50
2018-01-30T22:37:32.259Z,0.60
2018-01-30T22:40:00.308Z,0.70
2018-01-30T22:42:28.340Z,0.80
2018-01-30T22:44:56.400Z,0.80
